sensor_id;sensor_type;location;lat;lon;timestamp;temperature;humidity
14119;DHT22;7138;49.246;9.100;2023-05-07T00:00:17;12.80;99.90
14119;DHT22;7138;49.246;9.100;2023-05-07T00:02:44;12.80;99.90
14119;DHT22;7138;49.246;9.100;2023-05-07T00:05:12;12.80;99.90
14119;DHT22;7138;49.246;9.100;2023-05-07T00:07:38;12.80;99.90
14119;DHT22;7138;49.246;9.100;2023-05-07T00:10:05;12.80;99.90
14119;DHT22;7138;49.246;9.100;2023-05-07T00:12:32;12.80;99.90
14119;DHT22;7138;49.246;9.100;2023-05-07T00:14:59;12.70;99.90
14119;DHT22;7138;49.246;9.100;2023-05-07T00:17:25;12.70;99.90
14119;DHT22;7138;49.246;9.100;2023-05-07T00:19:50;12.70;99.90
14119;DHT22;7138;49.246;9.100;2023-05-07T00:22:18;12.60;99.90
14119;DHT22;7138;49.246;9.100;2023-05-07T00:24:43;12.60;99.90
14119;DHT22;7138;49.246;9.100;2023-05-07T00:27:09;12.50;99.90
14119;DHT22;7138;49.246;9.100;2023-05-07T00:29:35;12.50;99.90
14119;DHT22;7138;49.246;9.100;2023-05-07T00:32:02;12.50;99.90
14119;DHT22;7138;49.246;9.100;2023-05-07T00:34:27;12.50;99.90
14119;DHT22;7138;49.246;9.100;2023-05-07T00:36:53;12.50;99.90
14119;DHT22;7138;49.246;9.100;2023-05-07T00:39:20;12.50;99.90
14119;DHT22;7138;49.246;9.100;2023-05-07T00:41:46;12.50;99.90
14119;DHT22;7138;49.246;9.100;2023-05-07T00:44:12;12.50;99.90
14119;DHT22;7138;49.246;9.100;2023-05-07T00:46:38;12.40;99.90
14119;DHT22;7138;49.246;9.100;2023-05-07T00:49:04;12.40;99.90
14119;DHT22;7138;49.246;9.100;2023-05-07T00:51:31;12.40;99.90
14119;DHT22;7138;49.246;9.100;2023-05-07T00:54:00;12.40;99.90
14119;DHT22;7138;49.246;9.100;2023-05-07T00:56:28;12.40;99.90
14119;DHT22;7138;49.246;9.100;2023-05-07T00:58:55;12.40;99.90
14119;DHT22;7138;49.246;9.100;2023-05-07T01:01:21;12.40;99.90
14119;DHT22;7138;49.246;9.100;2023-05-07T01:03:46;12.40;99.90
14119;DHT22;7138;49.246;9.100;2023-05-07T01:06:13;12.40;99.90
14119;DHT22;7138;49.246;9.100;2023-05-07T01:08:42;12.40;99.90
14119;DHT22;7138;49.246;9.100;2023-05-07T01:11:08;12.30;99.90
14119;DHT22;7138;49.246;9.100;2023-05-07T01:13:38;12.30;99.90
14119;DHT22;7138;49.246;9.100;2023-05-07T01:16:05;12.20;99.90
14119;DHT22;7138;49.246;9.100;2023-05-07T01:18:32;12.20;99.90
14119;DHT22;7138;49.246;9.100;2023-05-07T01:20:58;12.20;99.90
14119;DHT22;7138;49.246;9.100;2023-05-07T01:23:29;12.20;99.90
14119;DHT22;7138;49.246;9.100;2023-05-07T01:25:56;12.20;99.90
14119;DHT22;7138;49.246;9.100;2023-05-07T01:28:22;12.20;99.90
14119;DHT22;7138;49.246;9.100;2023-05-07T01:30:51;12.20;99.90
14119;DHT22;7138;49.246;9.100;2023-05-07T01:33:21;12.20;99.90
14119;DHT22;7138;49.246;9.100;2023-05-07T01:35:51;12.20;99.90
14119;DHT22;7138;49.246;9.100;2023-05-07T01:38:19;12.20;99.90
14119;DHT22;7138;49.246;9.100;2023-05-07T01:40:48;12.10;99.90
14119;DHT22;7138;49.246;9.100;2023-05-07T01:43:15;12.00;99.90
14119;DHT22;7138;49.246;9.100;2023-05-07T01:45:41;12.00;99.90
14119;DHT22;7138;49.246;9.100;2023-05-07T01:48:09;12.00;99.90
14119;DHT22;7138;49.246;9.100;2023-05-07T01:50:37;12.00;99.90
14119;DHT22;7138;49.246;9.100;2023-05-07T01:53:03;12.00;99.90
14119;DHT22;7138;49.246;9.100;2023-05-07T01:55:29;12.00;99.90
14119;DHT22;7138;49.246;9.100;2023-05-07T01:57:56;12.00;99.90
14119;DHT22;7138;49.246;9.100;2023-05-07T02:00:22;12.00;99.90
14119;DHT22;7138;49.246;9.100;2023-05-07T02:02:49;12.00;99.90
14119;DHT22;7138;49.246;9.100;2023-05-07T02:05:15;12.00;99.90
14119;DHT22;7138;49.246;9.100;2023-05-07T02:07:40;11.90;99.90
14119;DHT22;7138;49.246;9.100;2023-05-07T02:10:07;11.90;99.90
14119;DHT22;7138;49.246;9.100;2023-05-07T02:12:33;11.90;99.90
14119;DHT22;7138;49.246;9.100;2023-05-07T02:15:00;11.90;99.90
14119;DHT22;7138;49.246;9.100;2023-05-07T02:17:26;11.90;99.90
14119;DHT22;7138;49.246;9.100;2023-05-07T02:19:52;11.90;99.90
14119;DHT22;7138;49.246;9.100;2023-05-07T02:22:18;11.80;99.90
14119;DHT22;7138;49.246;9.100;2023-05-07T02:24:44;11.90;99.90
14119;DHT22;7138;49.246;9.100;2023-05-07T02:27:10;11.90;99.90
14119;DHT22;7138;49.246;9.100;2023-05-07T02:29:35;11.80;99.90
14119;DHT22;7138;49.246;9.100;2023-05-07T02:32:03;11.90;99.90
14119;DHT22;7138;49.246;9.100;2023-05-07T02:34:29;11.80;99.90
14119;DHT22;7138;49.246;9.100;2023-05-07T02:36:55;11.80;99.90
14119;DHT22;7138;49.246;9.100;2023-05-07T02:39:21;11.90;99.90
14119;DHT22;7138;49.246;9.100;2023-05-07T02:41:47;11.90;99.90
14119;DHT22;7138;49.246;9.100;2023-05-07T02:44:12;11.90;99.90
14119;DHT22;7138;49.246;9.100;2023-05-07T02:46:38;11.80;99.90
14119;DHT22;7138;49.246;9.100;2023-05-07T02:49:05;11.90;99.90
14119;DHT22;7138;49.246;9.100;2023-05-07T02:51:31;11.80;99.90
14119;DHT22;7138;49.246;9.100;2023-05-07T02:53:57;11.80;99.90
14119;DHT22;7138;49.246;9.100;2023-05-07T02:56:25;11.70;99.90
14119;DHT22;7138;49.246;9.100;2023-05-07T02:58:51;11.80;99.90
14119;DHT22;7138;49.246;9.100;2023-05-07T03:01:16;11.70;99.90
14119;DHT22;7138;49.246;9.100;2023-05-07T03:03:42;11.70;99.90
14119;DHT22;7138;49.246;9.100;2023-05-07T03:06:09;11.70;99.90
14119;DHT22;7138;49.246;9.100;2023-05-07T03:08:35;11.60;99.90
14119;DHT22;7138;49.246;9.100;2023-05-07T03:11:02;11.50;99.90
14119;DHT22;7138;49.246;9.100;2023-05-07T03:13:28;11.40;99.90
14119;DHT22;7138;49.246;9.100;2023-05-07T03:15:54;11.20;99.90
14119;DHT22;7138;49.246;9.100;2023-05-07T03:18:19;11.10;99.90
14119;DHT22;7138;49.246;9.100;2023-05-07T03:20:46;11.00;99.90
14119;DHT22;7138;49.246;9.100;2023-05-07T03:23:13;11.00;99.90
14119;DHT22;7138;49.246;9.100;2023-05-07T03:25:38;11.00;99.90
14119;DHT22;7138;49.246;9.100;2023-05-07T03:28:04;11.00;99.90
14119;DHT22;7138;49.246;9.100;2023-05-07T03:30:31;11.00;99.90
14119;DHT22;7138;49.246;9.100;2023-05-07T03:32:56;11.00;99.90
14119;DHT22;7138;49.246;9.100;2023-05-07T03:35:22;10.90;99.90
14119;DHT22;7138;49.246;9.100;2023-05-07T03:37:48;10.90;99.90
14119;DHT22;7138;49.246;9.100;2023-05-07T03:40:15;10.90;99.90
14119;DHT22;7138;49.246;9.100;2023-05-07T03:42:41;10.80;99.90
14119;DHT22;7138;49.246;9.100;2023-05-07T03:45:08;10.70;99.90
14119;DHT22;7138;49.246;9.100;2023-05-07T03:47:34;10.70;99.90
14119;DHT22;7138;49.246;9.100;2023-05-07T03:50:00;10.70;99.90
14119;DHT22;7138;49.246;9.100;2023-05-07T03:52:26;10.60;99.90
14119;DHT22;7138;49.246;9.100;2023-05-07T03:54:52;10.60;99.90
14119;DHT22;7138;49.246;9.100;2023-05-07T03:57:20;10.60;99.90
14119;DHT22;7138;49.246;9.100;2023-05-07T03:59:46;10.60;99.90
14119;DHT22;7138;49.246;9.100;2023-05-07T04:02:12;10.60;99.90
14119;DHT22;7138;49.246;9.100;2023-05-07T04:04:38;10.60;99.90
14119;DHT22;7138;49.246;9.100;2023-05-07T04:07:03;10.70;99.90
14119;DHT22;7138;49.246;9.100;2023-05-07T04:09:29;10.70;99.90
14119;DHT22;7138;49.246;9.100;2023-05-07T04:11:55;10.80;99.90
14119;DHT22;7138;49.246;9.100;2023-05-07T04:14:23;10.90;99.90
14119;DHT22;7138;49.246;9.100;2023-05-07T04:16:48;11.00;99.90
14119;DHT22;7138;49.246;9.100;2023-05-07T04:19:14;11.00;99.90
14119;DHT22;7138;49.246;9.100;2023-05-07T04:21:40;11.10;99.90
14119;DHT22;7138;49.246;9.100;2023-05-07T04:24:06;11.00;99.90
14119;DHT22;7138;49.246;9.100;2023-05-07T04:26:32;11.00;99.90
14119;DHT22;7138;49.246;9.100;2023-05-07T04:28:59;11.10;99.90
14119;DHT22;7138;49.246;9.100;2023-05-07T04:31:26;11.10;99.90
14119;DHT22;7138;49.246;9.100;2023-05-07T04:33:52;11.20;99.90
14119;DHT22;7138;49.246;9.100;2023-05-07T04:36:18;11.30;99.90
14119;DHT22;7138;49.246;9.100;2023-05-07T04:38:44;11.30;99.90
14119;DHT22;7138;49.246;9.100;2023-05-07T04:41:12;11.50;99.90
14119;DHT22;7138;49.246;9.100;2023-05-07T04:43:38;11.60;99.90
14119;DHT22;7138;49.246;9.100;2023-05-07T04:46:04;11.70;99.90
14119;DHT22;7138;49.246;9.100;2023-05-07T04:48:31;11.70;99.90
14119;DHT22;7138;49.246;9.100;2023-05-07T04:50:57;11.70;99.90
14119;DHT22;7138;49.246;9.100;2023-05-07T04:53:23;11.80;99.90
14119;DHT22;7138;49.246;9.100;2023-05-07T04:55:49;11.90;99.90
14119;DHT22;7138;49.246;9.100;2023-05-07T04:58:21;12.00;99.90
14119;DHT22;7138;49.246;9.100;2023-05-07T05:00:46;12.20;99.90
14119;DHT22;7138;49.246;9.100;2023-05-07T05:03:12;12.40;99.90
14119;DHT22;7138;49.246;9.100;2023-05-07T05:05:39;12.70;99.90
14119;DHT22;7138;49.246;9.100;2023-05-07T05:08:05;13.50;99.90
14119;DHT22;7138;49.246;9.100;2023-05-07T05:10:31;14.00;99.90
14119;DHT22;7138;49.246;9.100;2023-05-07T05:12:57;14.40;99.90
14119;DHT22;7138;49.246;9.100;2023-05-07T05:15:23;14.70;99.90
14119;DHT22;7138;49.246;9.100;2023-05-07T05:17:48;14.60;99.90
14119;DHT22;7138;49.246;9.100;2023-05-07T05:20:14;15.10;99.90
14119;DHT22;7138;49.246;9.100;2023-05-07T05:22:42;15.40;99.90
14119;DHT22;7138;49.246;9.100;2023-05-07T05:25:08;15.70;99.90
14119;DHT22;7138;49.246;9.100;2023-05-07T05:27:34;15.50;99.90
14119;DHT22;7138;49.246;9.100;2023-05-07T05:30:00;15.40;99.90
14119;DHT22;7138;49.246;9.100;2023-05-07T05:32:26;15.50;99.90
14119;DHT22;7138;49.246;9.100;2023-05-07T05:34:52;15.40;99.90
14119;DHT22;7138;49.246;9.100;2023-05-07T05:37:18;15.20;99.90
14119;DHT22;7138;49.246;9.100;2023-05-07T05:39:45;15.20;99.90
14119;DHT22;7138;49.246;9.100;2023-05-07T05:42:11;16.40;99.90
14119;DHT22;7138;49.246;9.100;2023-05-07T05:44:37;18.00;99.90
14119;DHT22;7138;49.246;9.100;2023-05-07T05:47:03;18.90;99.90
14119;DHT22;7138;49.246;9.100;2023-05-07T05:49:28;19.30;99.90
14119;DHT22;7138;49.246;9.100;2023-05-07T05:51:54;19.20;99.90
14119;DHT22;7138;49.246;9.100;2023-05-07T05:54:21;18.80;99.90
14119;DHT22;7138;49.246;9.100;2023-05-07T05:56:48;18.30;99.90
14119;DHT22;7138;49.246;9.100;2023-05-07T05:59:14;17.30;99.90
14119;DHT22;7138;49.246;9.100;2023-05-07T06:01:40;16.80;99.90
14119;DHT22;7138;49.246;9.100;2023-05-07T06:04:06;16.70;99.90
14119;DHT22;7138;49.246;9.100;2023-05-07T06:06:32;16.10;99.90
14119;DHT22;7138;49.246;9.100;2023-05-07T06:08:58;16.10;99.90
14119;DHT22;7138;49.246;9.100;2023-05-07T06:11:23;16.10;99.90
14119;DHT22;7138;49.246;9.100;2023-05-07T06:13:52;16.10;99.90
14119;DHT22;7138;49.246;9.100;2023-05-07T06:16:17;16.20;99.90
14119;DHT22;7138;49.246;9.100;2023-05-07T06:18:43;15.90;99.90
14119;DHT22;7138;49.246;9.100;2023-05-07T06:21:10;15.60;99.90
14119;DHT22;7138;49.246;9.100;2023-05-07T06:23:36;15.60;99.90
14119;DHT22;7138;49.246;9.100;2023-05-07T06:26:02;15.80;99.90
14119;DHT22;7138;49.246;9.100;2023-05-07T06:28:28;15.80;99.90
14119;DHT22;7138;49.246;9.100;2023-05-07T06:31:11;15.70;99.90
14119;DHT22;7138;49.246;9.100;2023-05-07T06:33:37;15.80;99.90
14119;DHT22;7138;49.246;9.100;2023-05-07T06:36:04;15.70;99.90
14119;DHT22;7138;49.246;9.100;2023-05-07T06:38:30;15.70;99.90
14119;DHT22;7138;49.246;9.100;2023-05-07T06:40:56;15.50;99.90
14119;DHT22;7138;49.246;9.100;2023-05-07T06:43:23;15.40;99.90
14119;DHT22;7138;49.246;9.100;2023-05-07T06:45:48;15.50;99.90
14119;DHT22;7138;49.246;9.100;2023-05-07T06:48:16;15.70;99.90
14119;DHT22;7138;49.246;9.100;2023-05-07T06:50:41;16.00;99.90
14119;DHT22;7138;49.246;9.100;2023-05-07T06:53:07;16.70;99.90
14119;DHT22;7138;49.246;9.100;2023-05-07T06:55:33;16.70;99.90
14119;DHT22;7138;49.246;9.100;2023-05-07T06:57:59;16.20;99.90
14119;DHT22;7138;49.246;9.100;2023-05-07T07:00:26;16.10;99.90
14119;DHT22;7138;49.246;9.100;2023-05-07T07:02:53;16.10;99.90
14119;DHT22;7138;49.246;9.100;2023-05-07T07:05:20;16.30;99.90
14119;DHT22;7138;49.246;9.100;2023-05-07T07:07:46;16.70;99.90
14119;DHT22;7138;49.246;9.100;2023-05-07T07:10:18;17.50;99.90
14119;DHT22;7138;49.246;9.100;2023-05-07T07:12:44;17.80;99.90
14119;DHT22;7138;49.246;9.100;2023-05-07T07:15:10;18.30;99.90
14119;DHT22;7138;49.246;9.100;2023-05-07T07:17:36;18.70;99.90
14119;DHT22;7138;49.246;9.100;2023-05-07T07:20:03;18.30;99.90
14119;DHT22;7138;49.246;9.100;2023-05-07T07:22:30;18.50;99.90
14119;DHT22;7138;49.246;9.100;2023-05-07T07:24:56;18.20;99.90
14119;DHT22;7138;49.246;9.100;2023-05-07T07:27:22;18.60;99.90
14119;DHT22;7138;49.246;9.100;2023-05-07T07:29:48;19.20;99.90
14119;DHT22;7138;49.246;9.100;2023-05-07T07:32:14;19.50;99.90
14119;DHT22;7138;49.246;9.100;2023-05-07T07:34:40;19.40;99.90
14119;DHT22;7138;49.246;9.100;2023-05-07T07:37:06;19.80;99.90
14119;DHT22;7138;49.246;9.100;2023-05-07T07:39:33;20.40;99.90
14119;DHT22;7138;49.246;9.100;2023-05-07T07:41:59;19.90;99.90
14119;DHT22;7138;49.246;9.100;2023-05-07T07:44:25;20.00;99.90
14119;DHT22;7138;49.246;9.100;2023-05-07T07:46:51;19.40;99.90
14119;DHT22;7138;49.246;9.100;2023-05-07T07:49:17;18.90;99.90
14119;DHT22;7138;49.246;9.100;2023-05-07T07:51:43;19.10;99.90
14119;DHT22;7138;49.246;9.100;2023-05-07T07:54:09;19.10;99.90
14119;DHT22;7138;49.246;9.100;2023-05-07T07:56:36;19.20;99.90
14119;DHT22;7138;49.246;9.100;2023-05-07T07:59:02;19.60;99.90
14119;DHT22;7138;49.246;9.100;2023-05-07T08:01:29;19.40;99.90
14119;DHT22;7138;49.246;9.100;2023-05-07T08:03:56;19.70;99.90
14119;DHT22;7138;49.246;9.100;2023-05-07T08:06:24;20.20;99.90
14119;DHT22;7138;49.246;9.100;2023-05-07T08:08:50;20.00;99.90
14119;DHT22;7138;49.246;9.100;2023-05-07T08:11:16;20.10;99.90
14119;DHT22;7138;49.246;9.100;2023-05-07T08:13:45;20.20;99.90
14119;DHT22;7138;49.246;9.100;2023-05-07T08:16:11;20.00;99.90
14119;DHT22;7138;49.246;9.100;2023-05-07T08:18:37;20.00;99.90
14119;DHT22;7138;49.246;9.100;2023-05-07T08:21:03;20.10;99.90
14119;DHT22;7138;49.246;9.100;2023-05-07T08:23:29;20.90;99.90
14119;DHT22;7138;49.246;9.100;2023-05-07T08:25:56;20.80;99.90
14119;DHT22;7138;49.246;9.100;2023-05-07T08:28:21;21.00;99.90
14119;DHT22;7138;49.246;9.100;2023-05-07T08:30:48;20.50;99.90
14119;DHT22;7138;49.246;9.100;2023-05-07T08:33:14;20.50;99.90
14119;DHT22;7138;49.246;9.100;2023-05-07T08:35:40;20.50;99.90
14119;DHT22;7138;49.246;9.100;2023-05-07T08:38:06;19.90;99.90
14119;DHT22;7138;49.246;9.100;2023-05-07T08:40:36;19.90;99.90
14119;DHT22;7138;49.246;9.100;2023-05-07T08:43:05;19.80;99.90
14119;DHT22;7138;49.246;9.100;2023-05-07T08:45:33;20.20;99.90
14119;DHT22;7138;49.246;9.100;2023-05-07T08:48:03;21.10;99.90
14119;DHT22;7138;49.246;9.100;2023-05-07T08:50:35;21.30;99.90
14119;DHT22;7138;49.246;9.100;2023-05-07T08:53:02;22.00;99.90
14119;DHT22;7138;49.246;9.100;2023-05-07T08:55:28;22.30;99.90
14119;DHT22;7138;49.246;9.100;2023-05-07T08:57:55;22.70;99.90
14119;DHT22;7138;49.246;9.100;2023-05-07T09:00:21;22.60;99.90
14119;DHT22;7138;49.246;9.100;2023-05-07T09:02:47;22.60;99.90
14119;DHT22;7138;49.246;9.100;2023-05-07T09:05:15;22.20;99.90
14119;DHT22;7138;49.246;9.100;2023-05-07T09:07:41;22.40;99.90
14119;DHT22;7138;49.246;9.100;2023-05-07T09:10:08;22.30;99.90
14119;DHT22;7138;49.246;9.100;2023-05-07T09:12:34;22.20;99.90
14119;DHT22;7138;49.246;9.100;2023-05-07T09:15:05;21.70;99.90
14119;DHT22;7138;49.246;9.100;2023-05-07T09:17:32;21.70;99.90
14119;DHT22;7138;49.246;9.100;2023-05-07T09:20:02;21.60;99.90
14119;DHT22;7138;49.246;9.100;2023-05-07T09:22:33;21.90;99.90
14119;DHT22;7138;49.246;9.100;2023-05-07T09:24:59;22.30;99.90
14119;DHT22;7138;49.246;9.100;2023-05-07T09:27:25;22.20;99.90
14119;DHT22;7138;49.246;9.100;2023-05-07T09:29:51;22.20;99.90
14119;DHT22;7138;49.246;9.100;2023-05-07T09:32:17;22.40;99.90
14119;DHT22;7138;49.246;9.100;2023-05-07T09:34:43;22.80;99.90
14119;DHT22;7138;49.246;9.100;2023-05-07T09:37:12;23.10;99.90
14119;DHT22;7138;49.246;9.100;2023-05-07T09:39:41;22.90;99.90
14119;DHT22;7138;49.246;9.100;2023-05-07T09:42:07;23.30;99.90
14119;DHT22;7138;49.246;9.100;2023-05-07T09:44:34;23.60;99.90
14119;DHT22;7138;49.246;9.100;2023-05-07T09:47:02;23.60;99.90
14119;DHT22;7138;49.246;9.100;2023-05-07T09:49:30;23.40;99.90
14119;DHT22;7138;49.246;9.100;2023-05-07T09:52:00;23.30;99.90
14119;DHT22;7138;49.246;9.100;2023-05-07T09:54:27;23.30;99.90
14119;DHT22;7138;49.246;9.100;2023-05-07T09:56:58;23.10;99.90
14119;DHT22;7138;49.246;9.100;2023-05-07T09:59:25;23.60;99.90
14119;DHT22;7138;49.246;9.100;2023-05-07T10:01:54;23.80;99.90
14119;DHT22;7138;49.246;9.100;2023-05-07T10:04:23;23.50;99.90
14119;DHT22;7138;49.246;9.100;2023-05-07T10:06:50;23.90;99.90
14119;DHT22;7138;49.246;9.100;2023-05-07T10:09:16;24.40;99.90
14119;DHT22;7138;49.246;9.100;2023-05-07T10:11:43;24.50;99.90
14119;DHT22;7138;49.246;9.100;2023-05-07T10:14:12;24.70;99.90
14119;DHT22;7138;49.246;9.100;2023-05-07T10:16:39;25.10;99.90
14119;DHT22;7138;49.246;9.100;2023-05-07T10:19:07;24.70;99.90
14119;DHT22;7138;49.246;9.100;2023-05-07T10:21:39;25.10;99.90
14119;DHT22;7138;49.246;9.100;2023-05-07T10:24:13;24.60;99.90
14119;DHT22;7138;49.246;9.100;2023-05-07T10:26:48;24.10;99.90
14119;DHT22;7138;49.246;9.100;2023-05-07T10:29:25;24.50;99.90
14119;DHT22;7138;49.246;9.100;2023-05-07T10:32:03;24.00;99.90
14119;DHT22;7138;49.246;9.100;2023-05-07T10:34:47;24.60;99.90
14119;DHT22;7138;49.246;9.100;2023-05-07T10:37:16;24.40;99.90
14119;DHT22;7138;49.246;9.100;2023-05-07T10:39:43;24.70;99.90
14119;DHT22;7138;49.246;9.100;2023-05-07T10:42:10;25.00;99.90
14119;DHT22;7138;49.246;9.100;2023-05-07T10:44:38;24.80;99.90
14119;DHT22;7138;49.246;9.100;2023-05-07T10:47:08;24.90;99.90
14119;DHT22;7138;49.246;9.100;2023-05-07T10:49:35;25.20;99.90
14119;DHT22;7138;49.246;9.100;2023-05-07T10:52:13;25.30;99.90
14119;DHT22;7138;49.246;9.100;2023-05-07T10:54:41;25.10;99.90
14119;DHT22;7138;49.246;9.100;2023-05-07T10:57:33;25.10;99.90
14119;DHT22;7138;49.246;9.100;2023-05-07T11:00:04;25.30;99.90
14119;DHT22;7138;49.246;9.100;2023-05-07T11:03:06;25.40;99.90
14119;DHT22;7138;49.246;9.100;2023-05-07T11:05:33;25.10;99.90
14119;DHT22;7138;49.246;9.100;2023-05-07T11:08:00;25.30;99.90
14119;DHT22;7138;49.246;9.100;2023-05-07T11:10:48;25.50;99.90
14119;DHT22;7138;49.246;9.100;2023-05-07T11:13:16;25.80;99.90
14119;DHT22;7138;49.246;9.100;2023-05-07T11:15:45;26.40;99.90
14119;DHT22;7138;49.246;9.100;2023-05-07T11:18:14;25.70;99.90
14119;DHT22;7138;49.246;9.100;2023-05-07T11:20:55;26.00;99.90
14119;DHT22;7138;49.246;9.100;2023-05-07T11:23:57;25.60;99.90
14119;DHT22;7138;49.246;9.100;2023-05-07T11:26:24;25.70;99.90
14119;DHT22;7138;49.246;9.100;2023-05-07T11:28:51;25.40;99.90
14119;DHT22;7138;49.246;9.100;2023-05-07T11:31:23;25.30;99.90
14119;DHT22;7138;49.246;9.100;2023-05-07T11:33:51;25.40;99.90
14119;DHT22;7138;49.246;9.100;2023-05-07T11:36:19;25.30;99.90
14119;DHT22;7138;49.246;9.100;2023-05-07T11:38:46;25.50;99.90
14119;DHT22;7138;49.246;9.100;2023-05-07T11:41:12;25.20;99.90
14119;DHT22;7138;49.246;9.100;2023-05-07T11:43:40;25.20;99.90
14119;DHT22;7138;49.246;9.100;2023-05-07T11:46:21;25.70;99.90
14119;DHT22;7138;49.246;9.100;2023-05-07T11:48:47;26.00;99.90
14119;DHT22;7138;49.246;9.100;2023-05-07T11:51:13;26.10;99.90
14119;DHT22;7138;49.246;9.100;2023-05-07T11:53:45;26.00;99.90
14119;DHT22;7138;49.246;9.100;2023-05-07T11:56:13;25.90;99.90
14119;DHT22;7138;49.246;9.100;2023-05-07T11:58:40;25.30;99.90
14119;DHT22;7138;49.246;9.100;2023-05-07T12:01:08;25.90;99.90
14119;DHT22;7138;49.246;9.100;2023-05-07T12:03:36;25.90;99.90
14119;DHT22;7138;49.246;9.100;2023-05-07T12:06:08;25.80;99.90
14119;DHT22;7138;49.246;9.100;2023-05-07T12:08:37;25.70;99.90
14119;DHT22;7138;49.246;9.100;2023-05-07T12:11:07;25.40;99.90
14119;DHT22;7138;49.246;9.100;2023-05-07T12:13:34;25.40;99.90
14119;DHT22;7138;49.246;9.100;2023-05-07T12:16:00;25.30;99.90
14119;DHT22;7138;49.246;9.100;2023-05-07T12:18:28;25.20;99.90
14119;DHT22;7138;49.246;9.100;2023-05-07T12:20:57;25.00;99.90
14119;DHT22;7138;49.246;9.100;2023-05-07T12:23:24;25.50;99.90
14119;DHT22;7138;49.246;9.100;2023-05-07T12:25:50;25.20;99.90
14119;DHT22;7138;49.246;9.100;2023-05-07T12:28:18;25.40;99.90
14119;DHT22;7138;49.246;9.100;2023-05-07T12:30:47;25.20;99.90
14119;DHT22;7138;49.246;9.100;2023-05-07T12:33:16;25.40;99.90
14119;DHT22;7138;49.246;9.100;2023-05-07T12:35:43;25.60;99.90
14119;DHT22;7138;49.246;9.100;2023-05-07T12:38:12;25.60;99.90
14119;DHT22;7138;49.246;9.100;2023-05-07T12:40:39;25.60;99.90
14119;DHT22;7138;49.246;9.100;2023-05-07T12:43:06;25.60;99.90
14119;DHT22;7138;49.246;9.100;2023-05-07T12:45:36;25.40;99.90
14119;DHT22;7138;49.246;9.100;2023-05-07T12:48:04;25.30;99.90
14119;DHT22;7138;49.246;9.100;2023-05-07T12:50:33;24.80;99.90
14119;DHT22;7138;49.246;9.100;2023-05-07T12:53:00;25.20;99.90
14119;DHT22;7138;49.246;9.100;2023-05-07T12:55:32;25.20;99.90
14119;DHT22;7138;49.246;9.100;2023-05-07T12:58:06;24.90;99.90
14119;DHT22;7138;49.246;9.100;2023-05-07T13:00:36;24.80;99.90
14119;DHT22;7138;49.246;9.100;2023-05-07T13:03:03;24.70;99.90
14119;DHT22;7138;49.246;9.100;2023-05-07T13:05:31;25.10;99.90
14119;DHT22;7138;49.246;9.100;2023-05-07T13:07:58;24.90;99.90
14119;DHT22;7138;49.246;9.100;2023-05-07T13:10:24;25.20;99.90
14119;DHT22;7138;49.246;9.100;2023-05-07T13:12:52;25.10;99.90
14119;DHT22;7138;49.246;9.100;2023-05-07T13:15:18;25.20;99.90
14119;DHT22;7138;49.246;9.100;2023-05-07T13:17:44;24.90;99.90
14119;DHT22;7138;49.246;9.100;2023-05-07T13:20:11;24.50;99.90
14119;DHT22;7138;49.246;9.100;2023-05-07T13:22:41;24.70;99.90
14119;DHT22;7138;49.246;9.100;2023-05-07T13:25:08;24.60;99.90
14119;DHT22;7138;49.246;9.100;2023-05-07T13:27:34;24.70;99.90
14119;DHT22;7138;49.246;9.100;2023-05-07T13:30:05;24.50;99.90
14119;DHT22;7138;49.246;9.100;2023-05-07T13:32:32;24.40;99.90
14119;DHT22;7138;49.246;9.100;2023-05-07T13:34:58;24.30;99.90
14119;DHT22;7138;49.246;9.100;2023-05-07T13:37:24;24.20;99.90
14119;DHT22;7138;49.246;9.100;2023-05-07T13:39:50;24.00;99.90
14119;DHT22;7138;49.246;9.100;2023-05-07T13:42:16;23.90;99.90
14119;DHT22;7138;49.246;9.100;2023-05-07T13:44:43;24.00;99.90
14119;DHT22;7138;49.246;9.100;2023-05-07T13:47:10;23.90;99.90
14119;DHT22;7138;49.246;9.100;2023-05-07T13:49:36;23.80;99.90
14119;DHT22;7138;49.246;9.100;2023-05-07T13:52:02;23.70;99.90
14119;DHT22;7138;49.246;9.100;2023-05-07T13:54:28;23.70;99.90
14119;DHT22;7138;49.246;9.100;2023-05-07T13:56:54;23.40;99.90
14119;DHT22;7138;49.246;9.100;2023-05-07T13:59:20;23.20;99.90
14119;DHT22;7138;49.246;9.100;2023-05-07T14:01:46;23.20;99.90
14119;DHT22;7138;49.246;9.100;2023-05-07T14:04:14;23.00;99.90
14119;DHT22;7138;49.246;9.100;2023-05-07T14:06:39;22.90;99.90
14119;DHT22;7138;49.246;9.100;2023-05-07T14:09:05;22.80;99.90
14119;DHT22;7138;49.246;9.100;2023-05-07T14:11:31;22.70;99.90
14119;DHT22;7138;49.246;9.100;2023-05-07T14:13:57;22.70;99.90
14119;DHT22;7138;49.246;9.100;2023-05-07T14:16:23;22.60;99.90
14119;DHT22;7138;49.246;9.100;2023-05-07T14:18:49;22.60;99.90
14119;DHT22;7138;49.246;9.100;2023-05-07T14:21:16;22.50;99.90
14119;DHT22;7138;49.246;9.100;2023-05-07T14:23:42;22.30;99.90
14119;DHT22;7138;49.246;9.100;2023-05-07T14:26:08;22.20;99.90
14119;DHT22;7138;49.246;9.100;2023-05-07T14:28:34;22.10;99.90
14119;DHT22;7138;49.246;9.100;2023-05-07T14:31:00;22.00;99.90
14119;DHT22;7138;49.246;9.100;2023-05-07T14:33:26;21.90;99.90
14119;DHT22;7138;49.246;9.100;2023-05-07T14:35:55;21.50;99.90
14119;DHT22;7138;49.246;9.100;2023-05-07T14:38:22;20.70;99.90
14119;DHT22;7138;49.246;9.100;2023-05-07T14:40:48;20.20;99.90
14119;DHT22;7138;49.246;9.100;2023-05-07T14:43:14;19.70;99.90
14119;DHT22;7138;49.246;9.100;2023-05-07T14:45:39;19.10;99.90
14119;DHT22;7138;49.246;9.100;2023-05-07T14:48:05;18.60;99.90
14119;DHT22;7138;49.246;9.100;2023-05-07T14:50:31;18.10;99.90
14119;DHT22;7138;49.246;9.100;2023-05-07T14:52:58;17.60;99.90
14119;DHT22;7138;49.246;9.100;2023-05-07T14:55:25;17.20;99.90
14119;DHT22;7138;49.246;9.100;2023-05-07T14:57:51;17.00;99.90
14119;DHT22;7138;49.246;9.100;2023-05-07T15:00:17;16.70;99.90
14119;DHT22;7138;49.246;9.100;2023-05-07T15:02:43;16.40;99.90
14119;DHT22;7138;49.246;9.100;2023-05-07T15:05:09;16.30;99.90
14119;DHT22;7138;49.246;9.100;2023-05-07T15:07:35;16.10;99.90
14119;DHT22;7138;49.246;9.100;2023-05-07T15:10:01;16.00;99.90
14119;DHT22;7138;49.246;9.100;2023-05-07T15:12:28;15.80;99.90
14119;DHT22;7138;49.246;9.100;2023-05-07T15:14:54;15.60;99.90
14119;DHT22;7138;49.246;9.100;2023-05-07T15:17:19;15.60;99.90
14119;DHT22;7138;49.246;9.100;2023-05-07T15:19:45;15.50;99.90
14119;DHT22;7138;49.246;9.100;2023-05-07T15:22:11;15.50;99.90
14119;DHT22;7138;49.246;9.100;2023-05-07T15:24:37;15.50;99.90
14119;DHT22;7138;49.246;9.100;2023-05-07T15:27:03;15.40;99.90
14119;DHT22;7138;49.246;9.100;2023-05-07T15:29:30;15.40;99.90
14119;DHT22;7138;49.246;9.100;2023-05-07T15:31:56;15.40;99.90
14119;DHT22;7138;49.246;9.100;2023-05-07T15:34:22;15.30;99.90
14119;DHT22;7138;49.246;9.100;2023-05-07T15:36:49;15.20;99.90
14119;DHT22;7138;49.246;9.100;2023-05-07T15:39:15;15.20;99.90
14119;DHT22;7138;49.246;9.100;2023-05-07T15:41:41;15.10;99.90
14119;DHT22;7138;49.246;9.100;2023-05-07T15:44:07;15.10;99.90